Eastern Passage, Canada
Current Conditions -  °F | °C
As of 8:00 AM on Sunday 25 Jan 2015 (Local Time) from CYHZ Reporting Station
Overcast Overcast  
Wind Chill: 18°   Ceiling: 1400
Heat Index: 32°   Visibility: 15mi
Dew Point: 28°   Wind: 26mph
Humidity: 87%   Direction: 270°W
Pressure: 29.08"   Gusts: 36mph
Location:  44.62°N, 63.48°W
Report Text: CYHZ 251200Z 27023G31KT 15SM OVC014 00/M02 A2908 RMK SC8 PRESRR SLP853
Loading
Personal Weather Stations






























Interactive Weather Map New forecast layout! Learn more

10-Day Weather Forecast

Advertisements
Track Severe Weather on mobile